sensor_id;sensor_type;location;lat;lon;timestamp;pressure;altitude;pressure_sealevel;temperature;humidity
21821;BME280;11073;48.586;12.066;2023-03-20T00:02:33;96603.63;;;11.28;68.68
21821;BME280;11073;48.586;12.066;2023-03-20T00:05:23;96590.47;;;11.20;68.35
21821;BME280;11073;48.586;12.066;2023-03-20T00:08:13;96606.25;;;11.23;68.54
21821;BME280;11073;48.586;12.066;2023-03-20T00:11:02;96604.38;;;11.23;68.45
21821;BME280;11073;48.586;12.066;2023-03-20T00:13:52;96614.38;;;11.23;68.50
21821;BME280;11073;48.586;12.066;2023-03-20T00:16:44;96606.97;;;11.18;68.27
21821;BME280;11073;48.586;12.066;2023-03-20T00:19:33;96602.84;;;11.16;68.57
21821;BME280;11073;48.586;12.066;2023-03-20T00:22:23;96606.50;;;11.10;68.43
21821;BME280;11073;48.586;12.066;2023-03-20T00:25:13;96603.94;;;11.03;68.62
21821;BME280;11073;48.586;12.066;2023-03-20T00:28:22;96601.66;;;11.00;68.77
21821;BME280;11073;48.586;12.066;2023-03-20T00:31:22;96596.50;;;10.98;68.92
21821;BME280;11073;48.586;12.066;2023-03-20T00:34:15;96600.28;;;10.97;68.79
21821;BME280;11073;48.586;12.066;2023-03-20T00:37:05;96596.16;;;10.95;68.72
21821;BME280;11073;48.586;12.066;2023-03-20T00:39:55;96575.56;;;10.82;68.95
21821;BME280;11073;48.586;12.066;2023-03-20T00:42:45;96606.75;;;10.96;68.73
21821;BME280;11073;48.586;12.066;2023-03-20T00:45:35;96593.78;;;10.98;68.83
21821;BME280;11073;48.586;12.066;2023-03-20T00:48:24;96599.56;;;10.90;68.73
21821;BME280;11073;48.586;12.066;2023-03-20T00:51:14;96602.41;;;10.84;68.56
21821;BME280;11073;48.586;12.066;2023-03-20T00:54:04;96599.94;;;10.82;68.84
21821;BME280;11073;48.586;12.066;2023-03-20T00:56:56;96523.09;;;10.36;69.01
21821;BME280;11073;48.586;12.066;2023-03-20T00:59:50;96596.53;;;10.75;69.01
21821;BME280;11073;48.586;12.066;2023-03-20T01:02:41;96595.13;;;10.72;69.03
21821;BME280;11073;48.586;12.066;2023-03-20T01:05:30;96597.69;;;10.67;69.34
21821;BME280;11073;48.586;12.066;2023-03-20T01:08:22;96597.81;;;10.72;69.49
21821;BME280;11073;48.586;12.066;2023-03-20T01:11:12;96599.09;;;10.70;69.08
21821;BME280;11073;48.586;12.066;2023-03-20T01:14:02;96603.34;;;10.66;69.48
21821;BME280;11073;48.586;12.066;2023-03-20T01:16:52;96594.28;;;10.60;69.46
21821;BME280;11073;48.586;12.066;2023-03-20T01:19:41;96597.44;;;10.57;69.66
21821;BME280;11073;48.586;12.066;2023-03-20T01:22:31;96598.75;;;10.55;69.43
21821;BME280;11073;48.586;12.066;2023-03-20T01:25:22;96601.94;;;10.52;69.35
21821;BME280;11073;48.586;12.066;2023-03-20T01:28:14;96598.84;;;10.48;69.47
21821;BME280;11073;48.586;12.066;2023-03-20T01:31:04;96609.00;;;10.53;69.64
21821;BME280;11073;48.586;12.066;2023-03-20T01:33:54;96598.41;;;10.51;69.35
21821;BME280;11073;48.586;12.066;2023-03-20T01:36:47;96594.88;;;10.51;69.83
21821;BME280;11073;48.586;12.066;2023-03-20T01:39:37;96600.41;;;10.44;69.57
21821;BME280;11073;48.586;12.066;2023-03-20T01:42:28;96601.31;;;10.38;69.78
21821;BME280;11073;48.586;12.066;2023-03-20T01:45:19;96603.19;;;10.26;69.62
21821;BME280;11073;48.586;12.066;2023-03-20T01:48:16;96611.28;;;10.26;69.76
21821;BME280;11073;48.586;12.066;2023-03-20T01:51:07;96601.78;;;10.23;69.89
21821;BME280;11073;48.586;12.066;2023-03-20T01:53:58;96602.59;;;10.24;70.13
21821;BME280;11073;48.586;12.066;2023-03-20T01:56:57;96597.38;;;10.22;69.90
21821;BME280;11073;48.586;12.066;2023-03-20T01:59:51;96602.44;;;10.18;70.40
21821;BME280;11073;48.586;12.066;2023-03-20T02:02:43;96601.03;;;10.16;70.33
21821;BME280;11073;48.586;12.066;2023-03-20T02:05:45;96597.38;;;10.22;70.46
21821;BME280;11073;48.586;12.066;2023-03-20T02:08:36;96600.19;;;10.15;70.43
21821;BME280;11073;48.586;12.066;2023-03-20T02:11:29;96598.75;;;10.13;70.17
21821;BME280;11073;48.586;12.066;2023-03-20T02:14:19;96599.47;;;10.08;70.14
21821;BME280;11073;48.586;12.066;2023-03-20T02:17:19;96597.81;;;10.07;70.73
21821;BME280;11073;48.586;12.066;2023-03-20T02:20:27;96589.00;;;10.00;70.83
21821;BME280;11073;48.586;12.066;2023-03-20T02:23:46;96601.94;;;10.10;70.60
21821;BME280;11073;48.586;12.066;2023-03-20T02:26:58;96607.59;;;10.08;70.49
21821;BME280;11073;48.586;12.066;2023-03-20T02:33:39;96608.66;;;10.07;70.80
21821;BME280;11073;48.586;12.066;2023-03-20T02:36:47;96602.84;;;10.04;70.73
21821;BME280;11073;48.586;12.066;2023-03-20T02:39:49;96593.34;;;10.01;70.70
21821;BME280;11073;48.586;12.066;2023-03-20T02:42:44;96603.00;;;10.09;70.72
21821;BME280;11073;48.586;12.066;2023-03-20T02:45:42;96598.75;;;10.13;70.62
21821;BME280;11073;48.586;12.066;2023-03-20T02:48:45;96609.22;;;10.09;70.73
21821;BME280;11073;48.586;12.066;2023-03-20T02:51:45;96601.56;;;10.06;70.53
21821;BME280;11073;48.586;12.066;2023-03-20T02:54:40;96604.41;;;10.00;70.25
21821;BME280;11073;48.586;12.066;2023-03-20T02:57:42;96609.50;;;9.89;70.21
21821;BME280;11073;48.586;12.066;2023-03-20T03:00:38;96609.16;;;9.86;70.22
21821;BME280;11073;48.586;12.066;2023-03-20T03:03:32;96598.78;;;9.83;70.46
21821;BME280;11073;48.586;12.066;2023-03-20T03:06:29;96611.16;;;9.90;70.70
21821;BME280;11073;48.586;12.066;2023-03-20T03:09:22;96606.13;;;9.94;70.62
21821;BME280;11073;48.586;12.066;2023-03-20T03:12:16;96609.19;;;9.98;70.64
21821;BME280;11073;48.586;12.066;2023-03-20T03:15:12;96612.50;;;10.00;70.81
21821;BME280;11073;48.586;12.066;2023-03-20T03:18:06;96610.97;;;10.04;70.71
21821;BME280;11073;48.586;12.066;2023-03-20T03:21:00;96625.56;;;10.03;70.41
21821;BME280;11073;48.586;12.066;2023-03-20T03:23:51;96616.84;;;10.01;70.63
21821;BME280;11073;48.586;12.066;2023-03-20T03:26:41;96615.31;;;9.93;70.31
21821;BME280;11073;48.586;12.066;2023-03-20T03:29:32;96621.72;;;9.80;70.34
21821;BME280;11073;48.586;12.066;2023-03-20T03:32:29;96622.78;;;9.79;70.05
21821;BME280;11073;48.586;12.066;2023-03-20T03:35:20;96630.50;;;9.76;70.18
21821;BME280;11073;48.586;12.066;2023-03-20T03:38:23;96631.78;;;9.73;70.13
21821;BME280;11073;48.586;12.066;2023-03-20T03:41:19;96626.72;;;9.65;70.18
21821;BME280;11073;48.586;12.066;2023-03-20T03:44:12;96621.41;;;9.70;70.24
21821;BME280;11073;48.586;12.066;2023-03-20T03:47:06;96629.09;;;9.73;70.31
21821;BME280;11073;48.586;12.066;2023-03-20T03:50:03;96636.72;;;9.76;70.32
21821;BME280;11073;48.586;12.066;2023-03-20T03:52:55;96627.81;;;9.76;70.48
21821;BME280;11073;48.586;12.066;2023-03-20T03:55:49;96633.94;;;9.83;70.58
21821;BME280;11073;48.586;12.066;2023-03-20T03:58:41;96638.91;;;9.86;70.37
21821;BME280;11073;48.586;12.066;2023-03-20T04:01:32;96637.72;;;9.82;70.51
21821;BME280;11073;48.586;12.066;2023-03-20T04:04:23;96639.00;;;9.79;70.48
21821;BME280;11073;48.586;12.066;2023-03-20T04:07:14;96643.13;;;9.82;70.31
21821;BME280;11073;48.586;12.066;2023-03-20T04:10:04;96649.81;;;9.79;70.64
21821;BME280;11073;48.586;12.066;2023-03-20T04:12:53;96645.66;;;9.77;70.47
21821;BME280;11073;48.586;12.066;2023-03-20T04:15:43;96646.72;;;9.76;70.83
21821;BME280;11073;48.586;12.066;2023-03-20T04:18:31;96645.06;;;9.75;70.73
21821;BME280;11073;48.586;12.066;2023-03-20T04:21:20;96656.72;;;9.75;70.95
21821;BME280;11073;48.586;12.066;2023-03-20T04:24:12;96657.53;;;9.76;70.87
21821;BME280;11073;48.586;12.066;2023-03-20T04:27:02;96660.88;;;9.78;71.00
21821;BME280;11073;48.586;12.066;2023-03-20T04:29:52;96652.53;;;9.79;70.87
21821;BME280;11073;48.586;12.066;2023-03-20T04:33:04;96655.06;;;9.74;71.27
21821;BME280;11073;48.586;12.066;2023-03-20T04:36:03;96659.06;;;9.72;71.20
21821;BME280;11073;48.586;12.066;2023-03-20T04:38:52;96654.59;;;9.77;71.31
21821;BME280;11073;48.586;12.066;2023-03-20T04:41:46;96659.56;;;9.80;71.28
21821;BME280;11073;48.586;12.066;2023-03-20T04:44:36;96665.22;;;9.79;71.38
21821;BME280;11073;48.586;12.066;2023-03-20T04:47:27;96666.72;;;9.75;71.66
21821;BME280;11073;48.586;12.066;2023-03-20T04:50:16;96661.78;;;9.72;71.79
21821;BME280;11073;48.586;12.066;2023-03-20T04:53:06;96662.81;;;9.71;71.88
21821;BME280;11073;48.586;12.066;2023-03-20T04:55:55;96670.63;;;9.79;71.74
21821;BME280;11073;48.586;12.066;2023-03-20T04:58:50;96673.31;;;9.79;71.86
21821;BME280;11073;48.586;12.066;2023-03-20T05:01:41;96666.78;;;9.68;71.89
21821;BME280;11073;48.586;12.066;2023-03-20T05:04:30;96662.59;;;9.72;72.27
21821;BME280;11073;48.586;12.066;2023-03-20T05:07:19;96671.28;;;9.74;72.25
21821;BME280;11073;48.586;12.066;2023-03-20T05:10:18;96675.19;;;9.78;72.28
21821;BME280;11073;48.586;12.066;2023-03-20T05:13:14;96666.34;;;9.71;72.49
21821;BME280;11073;48.586;12.066;2023-03-20T05:16:30;96660.13;;;9.71;72.35
21821;BME280;11073;48.586;12.066;2023-03-20T05:19:44;96669.41;;;9.75;72.49
21821;BME280;11073;48.586;12.066;2023-03-20T05:22:54;96641.38;;;9.57;72.48
21821;BME280;11073;48.586;12.066;2023-03-20T05:26:02;96673.31;;;9.79;72.54
21821;BME280;11073;48.586;12.066;2023-03-20T05:29:30;96684.88;;;9.86;72.50
21821;BME280;11073;48.586;12.066;2023-03-20T05:32:23;96682.19;;;9.86;72.68
21821;BME280;11073;48.586;12.066;2023-03-20T05:35:39;96677.34;;;9.88;72.56
21821;BME280;11073;48.586;12.066;2023-03-20T05:38:46;96684.66;;;9.87;72.56
21821;BME280;11073;48.586;12.066;2023-03-20T05:41:55;96689.81;;;9.89;72.85
21821;BME280;11073;48.586;12.066;2023-03-20T05:45:04;96690.22;;;9.92;72.77
21821;BME280;11073;48.586;12.066;2023-03-20T05:48:08;96688.69;;;9.97;72.72
21821;BME280;11073;48.586;12.066;2023-03-20T05:51:01;96697.03;;;9.95;72.74
21821;BME280;11073;48.586;12.066;2023-03-20T05:54:00;96703.41;;;10.01;72.76
21821;BME280;11073;48.586;12.066;2023-03-20T05:57:14;96688.69;;;9.97;72.75
21821;BME280;11073;48.586;12.066;2023-03-20T06:00:24;96687.78;;;9.84;72.98
21821;BME280;11073;48.586;12.066;2023-03-20T06:03:36;96715.50;;;9.98;72.78
21821;BME280;11073;48.586;12.066;2023-03-20T06:06:32;96717.84;;;9.94;72.74
21821;BME280;11073;48.586;12.066;2023-03-20T06:09:24;96719.50;;;9.95;72.71
21821;BME280;11073;48.586;12.066;2023-03-20T06:12:13;96716.19;;;9.93;72.77
21821;BME280;11073;48.586;12.066;2023-03-20T06:15:03;96722.66;;;9.92;73.09
21821;BME280;11073;48.586;12.066;2023-03-20T06:17:57;96728.88;;;9.93;72.94
21821;BME280;11073;48.586;12.066;2023-03-20T06:20:52;96703.50;;;9.76;72.98
21821;BME280;11073;48.586;12.066;2023-03-20T06:23:42;96730.78;;;9.92;73.00
21821;BME280;11073;48.586;12.066;2023-03-20T06:26:30;96725.13;;;9.94;73.03
21821;BME280;11073;48.586;12.066;2023-03-20T06:29:23;96731.13;;;9.96;73.27
21821;BME280;11073;48.586;12.066;2023-03-20T06:32:16;96736.69;;;10.01;73.08
21821;BME280;11073;48.586;12.066;2023-03-20T06:35:10;96727.59;;;9.95;73.10
21821;BME280;11073;48.586;12.066;2023-03-20T06:38:06;96747.28;;;10.03;72.82
21821;BME280;11073;48.586;12.066;2023-03-20T06:40:55;96746.69;;;10.01;73.17
21821;BME280;11073;48.586;12.066;2023-03-20T06:43:45;96745.63;;;10.02;73.20
21821;BME280;11073;48.586;12.066;2023-03-20T06:46:34;96748.34;;;10.02;73.07
21821;BME280;11073;48.586;12.066;2023-03-20T06:49:23;96750.56;;;10.05;72.99
21821;BME280;11073;48.586;12.066;2023-03-20T06:52:14;96752.09;;;10.01;73.03
21821;BME280;11073;48.586;12.066;2023-03-20T06:55:15;96747.13;;;9.98;73.22
21821;BME280;11073;48.586;12.066;2023-03-20T06:58:05;96751.28;;;10.00;73.38
21821;BME280;11073;48.586;12.066;2023-03-20T07:00:56;96752.44;;;10.04;73.24
21821;BME280;11073;48.586;12.066;2023-03-20T07:03:45;96744.41;;;9.98;73.36
21821;BME280;11073;48.586;12.066;2023-03-20T07:06:40;96752.44;;;10.04;73.58
21821;BME280;11073;48.586;12.066;2023-03-20T07:09:30;96739.97;;;10.03;73.46
21821;BME280;11073;48.586;12.066;2023-03-20T07:12:21;96751.78;;;10.09;73.50
21821;BME280;11073;48.586;12.066;2023-03-20T07:15:18;96754.41;;;10.15;73.39
21821;BME280;11073;48.586;12.066;2023-03-20T07:18:08;96759.09;;;10.20;73.23
21821;BME280;11073;48.586;12.066;2023-03-20T07:21:00;96742.03;;;10.08;73.29
21821;BME280;11073;48.586;12.066;2023-03-20T07:23:51;96754.75;;;10.19;73.43
21821;BME280;11073;48.586;12.066;2023-03-20T07:26:39;96767.41;;;10.25;73.30
21821;BME280;11073;48.586;12.066;2023-03-20T07:29:30;96764.03;;;10.30;73.40
21821;BME280;11073;48.586;12.066;2023-03-20T07:32:19;96771.44;;;10.34;73.57
21821;BME280;11073;48.586;12.066;2023-03-20T07:35:11;96764.53;;;10.38;73.36
21821;BME280;11073;48.586;12.066;2023-03-20T07:38:02;96770.09;;;10.43;73.42
21821;BME280;11073;48.586;12.066;2023-03-20T07:40:52;96769.97;;;10.50;73.37
21821;BME280;11073;48.586;12.066;2023-03-20T07:43:41;96784.72;;;10.54;73.54
21821;BME280;11073;48.586;12.066;2023-03-20T07:46:41;96785.69;;;10.60;73.64
21821;BME280;11073;48.586;12.066;2023-03-20T07:49:31;96780.84;;;10.62;73.60
21821;BME280;11073;48.586;12.066;2023-03-20T07:52:20;96794.88;;;10.70;73.18
21821;BME280;11073;48.586;12.066;2023-03-20T07:55:09;96795.94;;;10.69;73.38
21821;BME280;11073;48.586;12.066;2023-03-20T07:57:58;96793.00;;;10.71;73.54
21821;BME280;11073;48.586;12.066;2023-03-20T08:00:47;96795.25;;;10.74;73.68
21821;BME280;11073;48.586;12.066;2023-03-20T08:03:37;96801.84;;;10.78;73.71
21821;BME280;11073;48.586;12.066;2023-03-20T08:06:26;96794.53;;;10.78;73.54
21821;BME280;11073;48.586;12.066;2023-03-20T08:09:16;96800.59;;;10.81;73.66
21821;BME280;11073;48.586;12.066;2023-03-20T08:12:05;96794.44;;;10.85;73.80
21821;BME280;11073;48.586;12.066;2023-03-20T08:14:54;96805.19;;;10.92;73.82
21821;BME280;11073;48.586;12.066;2023-03-20T08:17:44;96797.63;;;10.82;73.90
21821;BME280;11073;48.586;12.066;2023-03-20T08:20:34;96800.59;;;10.81;73.58
21821;BME280;11073;48.586;12.066;2023-03-20T08:23:23;96805.75;;;10.82;73.73
21821;BME280;11073;48.586;12.066;2023-03-20T08:26:11;96796.00;;;10.81;73.35
21821;BME280;11073;48.586;12.066;2023-03-20T08:29:00;96803.88;;;10.83;73.72
21821;BME280;11073;48.586;12.066;2023-03-20T08:31:49;96797.31;;;10.90;73.35
21821;BME280;11073;48.586;12.066;2023-03-20T08:34:38;96804.94;;;10.93;72.92
21821;BME280;11073;48.586;12.066;2023-03-20T08:37:28;96797.69;;;11.05;73.16
21821;BME280;11073;48.586;12.066;2023-03-20T08:40:17;96793.09;;;11.06;72.50
21821;BME280;11073;48.586;12.066;2023-03-20T08:43:06;96792.06;;;11.19;72.52
21821;BME280;11073;48.586;12.066;2023-03-20T08:45:55;96796.78;;;11.35;72.46
21821;BME280;11073;48.586;12.066;2023-03-20T08:48:44;96793.63;;;11.73;72.09
21821;BME280;11073;48.586;12.066;2023-03-20T08:51:34;96794.56;;;12.02;71.62
21821;BME280;11073;48.586;12.066;2023-03-20T08:54:24;96789.94;;;12.03;70.91
21821;BME280;11073;48.586;12.066;2023-03-20T08:57:13;96789.06;;;12.14;70.57
21821;BME280;11073;48.586;12.066;2023-03-20T09:00:02;96798.78;;;12.10;70.18
21821;BME280;11073;48.586;12.066;2023-03-20T09:02:52;96794.09;;;12.34;70.13
21821;BME280;11073;48.586;12.066;2023-03-20T09:05:42;96802.25;;;12.34;69.50
21821;BME280;11073;48.586;12.066;2023-03-20T09:08:32;96790.81;;;12.32;69.50
21821;BME280;11073;48.586;12.066;2023-03-20T09:11:23;96779.41;;;12.18;69.05
21821;BME280;11073;48.586;12.066;2023-03-20T09:14:12;96785.75;;;12.24;69.02
21821;BME280;11073;48.586;12.066;2023-03-20T09:17:01;96797.00;;;12.44;68.81
21821;BME280;11073;48.586;12.066;2023-03-20T09:19:50;96782.31;;;13.02;68.77
21821;BME280;11073;48.586;12.066;2023-03-20T09:22:39;96794.22;;;13.13;67.72
21821;BME280;11073;48.586;12.066;2023-03-20T09:25:30;96796.53;;;13.21;67.00
21821;BME280;11073;48.586;12.066;2023-03-20T09:28:20;96803.63;;;13.22;66.85
21821;BME280;11073;48.586;12.066;2023-03-20T09:31:09;96808.81;;;13.57;66.52
21821;BME280;11073;48.586;12.066;2023-03-20T09:34:01;96804.09;;;13.86;65.97
21821;BME280;11073;48.586;12.066;2023-03-20T09:36:51;96804.81;;;13.82;65.40
21821;BME280;11073;48.586;12.066;2023-03-20T09:39:40;96816.69;;;13.75;64.33
21821;BME280;11073;48.586;12.066;2023-03-20T09:42:41;96817.16;;;13.50;63.93
21821;BME280;11073;48.586;12.066;2023-03-20T09:45:44;96809.63;;;13.74;63.98
21821;BME280;11073;48.586;12.066;2023-03-20T09:48:43;96806.63;;;13.93;63.62
21821;BME280;11073;48.586;12.066;2023-03-20T09:51:37;96806.91;;;14.13;63.66
21821;BME280;11073;48.586;12.066;2023-03-20T09:54:34;96796.47;;;14.71;63.00
21821;BME280;11073;48.586;12.066;2023-03-20T09:57:42;96801.34;;;15.23;62.08
21821;BME280;11073;48.586;12.066;2023-03-20T10:00:39;96806.72;;;15.50;60.81
21821;BME280;11073;48.586;12.066;2023-03-20T10:03:38;96799.50;;;15.01;60.03
21821;BME280;11073;48.586;12.066;2023-03-20T10:06:29;96794.41;;;15.10;59.98
21821;BME280;11073;48.586;12.066;2023-03-20T10:09:21;96795.00;;;15.49;59.80
21821;BME280;11073;48.586;12.066;2023-03-20T10:12:38;96779.47;;;15.92;59.00
21821;BME280;11073;48.586;12.066;2023-03-20T10:15:42;96786.78;;;15.44;58.13
21821;BME280;11073;48.586;12.066;2023-03-20T10:18:37;96792.16;;;15.02;57.88
21821;BME280;11073;48.586;12.066;2023-03-20T10:21:32;96781.72;;;15.26;58.04
21821;BME280;11073;48.586;12.066;2023-03-20T10:24:28;96781.13;;;15.93;57.59
21821;BME280;11073;48.586;12.066;2023-03-20T10:27:21;96796.63;;;16.30;56.85
21821;BME280;11073;48.586;12.066;2023-03-20T10:30:25;96782.63;;;16.94;56.19
21821;BME280;11073;48.586;12.066;2023-03-20T10:33:30;96795.22;;;16.90;55.02
21821;BME280;11073;48.586;12.066;2023-03-20T10:36:35;96791.41;;;16.23;54.07
21821;BME280;11073;48.586;12.066;2023-03-20T10:39:36;96761.66;;;15.42;54.31
21821;BME280;11073;48.586;12.066;2023-03-20T10:42:31;96784.22;;;15.32;54.57
21821;BME280;11073;48.586;12.066;2023-03-20T10:45:28;96780.38;;;15.28;55.21
21821;BME280;11073;48.586;12.066;2023-03-20T10:48:24;96774.84;;;15.55;55.29
21821;BME280;11073;48.586;12.066;2023-03-20T10:51:17;96774.47;;;16.26;54.66
21821;BME280;11073;48.586;12.066;2023-03-20T10:54:12;96773.84;;;16.76;54.69
21821;BME280;11073;48.586;12.066;2023-03-20T10:57:11;96765.44;;;17.29;53.30
21821;BME280;11073;48.586;12.066;2023-03-20T11:00:04;96757.78;;;17.26;52.05
21821;BME280;11073;48.586;12.066;2023-03-20T11:02:57;96760.22;;;16.81;52.18
21821;BME280;11073;48.586;12.066;2023-03-20T11:05:49;96758.69;;;16.38;51.65
21821;BME280;11073;48.586;12.066;2023-03-20T11:08:55;96755.56;;;16.14;52.08
21821;BME280;11073;48.586;12.066;2023-03-20T11:11:45;96745.72;;;16.08;52.02
21821;BME280;11073;48.586;12.066;2023-03-20T11:14:36;96747.31;;;15.94;52.40
21821;BME280;11073;48.586;12.066;2023-03-20T11:17:27;96763.19;;;16.02;52.18
21821;BME280;11073;48.586;12.066;2023-03-20T11:20:16;96755.69;;;16.40;52.39
21821;BME280;11073;48.586;12.066;2023-03-20T11:23:07;96762.19;;;17.17;51.66
21821;BME280;11073;48.586;12.066;2023-03-20T11:25:57;96755.84;;;16.80;50.93
21821;BME280;11073;48.586;12.066;2023-03-20T11:28:50;96748.00;;;16.32;51.06
21821;BME280;11073;48.586;12.066;2023-03-20T11:31:40;96751.66;;;15.95;51.02
21821;BME280;11073;48.586;12.066;2023-03-20T11:34:30;96752.63;;;15.74;51.28
21821;BME280;11073;48.586;12.066;2023-03-20T11:37:22;96757.66;;;15.55;51.55
21821;BME280;11073;48.586;12.066;2023-03-20T11:40:15;96750.19;;;15.40;51.87
21821;BME280;11073;48.586;12.066;2023-03-20T11:43:11;96747.72;;;15.38;51.96
21821;BME280;11073;48.586;12.066;2023-03-20T11:46:00;96757.22;;;15.31;51.85
21821;BME280;11073;48.586;12.066;2023-03-20T11:49:05;96757.38;;;15.14;52.17
21821;BME280;11073;48.586;12.066;2023-03-20T11:51:59;96752.59;;;14.99;52.34
21821;BME280;11073;48.586;12.066;2023-03-20T11:54:50;96753.50;;;15.10;52.58
21821;BME280;11073;48.586;12.066;2023-03-20T11:57:41;96755.47;;;15.57;52.05
21821;BME280;11073;48.586;12.066;2023-03-20T12:00:35;96755.91;;;15.38;51.81
21821;BME280;11073;48.586;12.066;2023-03-20T12:03:49;96748.22;;;15.30;51.83
21821;BME280;11073;48.586;12.066;2023-03-20T12:06:43;96750.22;;;15.13;51.76
21821;BME280;11073;48.586;12.066;2023-03-20T12:09:37;96744.84;;;14.86;51.81
21821;BME280;11073;48.586;12.066;2023-03-20T12:12:35;96749.25;;;14.65;51.90
21821;BME280;11073;48.586;12.066;2023-03-20T12:15:32;96739.84;;;14.51;52.05
21821;BME280;11073;48.586;12.066;2023-03-20T12:18:25;96739.53;;;14.47;52.29
21821;BME280;11073;48.586;12.066;2023-03-20T12:21:22;96737.47;;;14.59;52.54
21821;BME280;11073;48.586;12.066;2023-03-20T12:24:16;96744.94;;;14.69;52.32
21821;BME280;11073;48.586;12.066;2023-03-20T12:27:20;96731.75;;;14.88;52.30
21821;BME280;11073;48.586;12.066;2023-03-20T12:30:14;96732.06;;;14.92;51.83
21821;BME280;11073;48.586;12.066;2023-03-20T12:33:11;96735.84;;;14.85;51.45
21821;BME280;11073;48.586;12.066;2023-03-20T12:36:03;96742.00;;;14.76;51.07
21821;BME280;11073;48.586;12.066;2023-03-20T12:38:58;96732.59;;;14.61;51.06
21821;BME280;11073;48.586;12.066;2023-03-20T12:42:03;96730.66;;;14.57;51.26
21821;BME280;11073;48.586;12.066;2023-03-20T12:45:00;96741.84;;;14.60;51.37
21821;BME280;11073;48.586;12.066;2023-03-20T12:48:08;96737.13;;;14.51;51.60
21821;BME280;11073;48.586;12.066;2023-03-20T12:51:07;96737.41;;;14.32;51.33
21821;BME280;11073;48.586;12.066;2023-03-20T12:54:10;96727.34;;;14.33;51.72
21821;BME280;11073;48.586;12.066;2023-03-20T12:57:11;96735.59;;;14.38;52.08
21821;BME280;11073;48.586;12.066;2023-03-20T13:00:14;96733.69;;;14.39;51.91
21821;BME280;11073;48.586;12.066;2023-03-20T13:03:21;96730.53;;;14.47;52.42
21821;BME280;11073;48.586;12.066;2023-03-20T13:06:19;96711.06;;;14.38;52.49
21821;BME280;11073;48.586;12.066;2023-03-20T13:09:34;96717.25;;;14.55;52.31
21821;BME280;11073;48.586;12.066;2023-03-20T13:12:36;96717.03;;;14.57;52.35
21821;BME280;11073;48.586;12.066;2023-03-20T13:15:40;96719.03;;;14.67;52.02
21821;BME280;11073;48.586;12.066;2023-03-20T13:18:46;96720.94;;;14.66;52.07
21821;BME280;11073;48.586;12.066;2023-03-20T13:21:44;96715.22;;;14.68;52.20
21821;BME280;11073;48.586;12.066;2023-03-20T13:24:40;96710.09;;;14.71;52.24
21821;BME280;11073;48.586;12.066;2023-03-20T13:27:35;96714.75;;;14.76;52.33
21821;BME280;11073;48.586;12.066;2023-03-20T13:30:30;96700.56;;;14.74;52.10
21821;BME280;11073;48.586;12.066;2023-03-20T13:33:34;96715.56;;;14.76;51.96
21821;BME280;11073;48.586;12.066;2023-03-20T13:36:37;96703.97;;;14.59;51.71
21821;BME280;11073;48.586;12.066;2023-03-20T13:39:34;96704.72;;;14.54;51.52
21821;BME280;11073;48.586;12.066;2023-03-20T13:42:28;96710.50;;;14.58;51.57
21821;BME280;11073;48.586;12.066;2023-03-20T13:45:24;96710.75;;;14.56;51.60
21821;BME280;11073;48.586;12.066;2023-03-20T13:48:26;96709.56;;;14.47;51.58
21821;BME280;11073;48.586;12.066;2023-03-20T13:51:24;96704.28;;;14.41;51.46
21821;BME280;11073;48.586;12.066;2023-03-20T13:54:33;96698.72;;;14.30;51.37
21821;BME280;11073;48.586;12.066;2023-03-20T13:57:41;96696.78;;;14.26;51.59
21821;BME280;11073;48.586;12.066;2023-03-20T14:00:35;96696.00;;;14.30;51.81
21821;BME280;11073;48.586;12.066;2023-03-20T14:03:29;96693.19;;;14.20;51.71
21821;BME280;11073;48.586;12.066;2023-03-20T14:06:44;96690.41;;;14.15;52.15
21821;BME280;11073;48.586;12.066;2023-03-20T14:09:36;96693.31;;;14.08;52.30
21821;BME280;11073;48.586;12.066;2023-03-20T14:12:26;96700.16;;;14.11;52.41
21821;BME280;11073;48.586;12.066;2023-03-20T14:15:20;96697.41;;;14.11;52.71
21821;BME280;11073;48.586;12.066;2023-03-20T14:18:14;96692.03;;;14.16;52.65
21821;BME280;11073;48.586;12.066;2023-03-20T14:21:10;96695.84;;;14.15;53.09
21821;BME280;11073;48.586;12.066;2023-03-20T14:24:02;96693.19;;;14.20;52.94
21821;BME280;11073;48.586;12.066;2023-03-20T14:26:55;96681.59;;;14.08;52.71
21821;BME280;11073;48.586;12.066;2023-03-20T14:29:44;96688.50;;;14.16;52.85
21821;BME280;11073;48.586;12.066;2023-03-20T14:32:34;96691.47;;;14.14;52.95
21821;BME280;11073;48.586;12.066;2023-03-20T14:35:26;96689.31;;;14.16;52.75
21821;BME280;11073;48.586;12.066;2023-03-20T14:38:23;96692.31;;;14.15;53.11
21821;BME280;11073;48.586;12.066;2023-03-20T14:41:18;96686.94;;;14.20;53.15
21821;BME280;11073;48.586;12.066;2023-03-20T14:44:22;96679.13;;;14.28;53.17
21821;BME280;11073;48.586;12.066;2023-03-20T14:47:24;96686.25;;;14.34;53.17
21821;BME280;11073;48.586;12.066;2023-03-20T14:50:22;96684.03;;;14.31;53.28
21821;BME280;11073;48.586;12.066;2023-03-20T14:53:16;96677.22;;;14.29;53.38
21821;BME280;11073;48.586;12.066;2023-03-20T14:56:08;96684.56;;;14.28;53.30
21821;BME280;11073;48.586;12.066;2023-03-20T14:59:03;96684.56;;;14.28;53.02
21821;BME280;11073;48.586;12.066;2023-03-20T15:01:56;96670.94;;;14.28;52.95
21821;BME280;11073;48.586;12.066;2023-03-20T15:04:45;96679.78;;;14.41;53.05
21821;BME280;11073;48.586;12.066;2023-03-20T15:07:36;96583.47;;;13.93;52.82
21821;BME280;11073;48.586;12.066;2023-03-20T15:10:27;96644.28;;;14.30;52.75
21821;BME280;11073;48.586;12.066;2023-03-20T15:13:16;96662.88;;;14.39;52.82
21821;BME280;11073;48.586;12.066;2023-03-20T15:16:09;96670.97;;;14.33;52.38
21821;BME280;11073;48.586;12.066;2023-03-20T15:19:14;96648.03;;;14.24;52.36
21821;BME280;11073;48.586;12.066;2023-03-20T15:22:14;96669.53;;;14.26;52.10